createdAt,value
2018-12-20T00:01:50.920Z,9.67
2018-12-20T00:04:19.386Z,10.70
2018-12-20T00:06:47.719Z,10.90
2018-12-20T00:09:15.939Z,9.70
2018-12-20T00:11:44.152Z,11.10
2018-12-20T00:14:12.416Z,10.70
2018-12-20T00:16:40.654Z,10.20
2018-12-20T00:19:08.954Z,9.77
2018-12-20T00:21:37.252Z,9.97
2018-12-20T00:24:05.632Z,10.33
2018-12-20T00:26:33.982Z,9.50
2018-12-20T00:29:02.276Z,10.27
2018-12-20T00:31:30.644Z,10.40
2018-12-20T00:33:58.908Z,11.53
2018-12-20T00:36:27.372Z,11.77
2018-12-20T00:38:55.674Z,10.97
2018-12-20T00:41:24.088Z,11.50
2018-12-20T00:43:52.339Z,10.17
2018-12-20T00:46:20.801Z,12.40
2018-12-20T00:48:49.115Z,11.80
2018-12-20T00:51:17.424Z,9.93
2018-12-20T00:53:45.705Z,10.80
2018-12-20T00:56:14.421Z,11.13
2018-12-20T00:58:42.731Z,11.13
2018-12-20T01:01:11.043Z,11.10
2018-12-20T01:03:39.371Z,10.57
2018-12-20T01:06:07.814Z,11.20
2018-12-20T01:08:36.123Z,10.97
2018-12-20T01:11:04.356Z,10.47
2018-12-20T01:13:38.891Z,10.70
2018-12-20T01:16:08.445Z,10.80
2018-12-20T01:18:36.753Z,10.50
2018-12-20T01:21:05.146Z,9.70
2018-12-20T01:23:33.399Z,10.97
2018-12-20T01:26:02.646Z,10.30
2018-12-20T01:28:30.902Z,10.20
2018-12-20T01:30:59.240Z,9.50
2018-12-20T01:33:27.516Z,9.83
2018-12-20T01:35:55.926Z,8.60
2018-12-20T01:38:24.236Z,8.87
2018-12-20T01:40:52.520Z,11.07
2018-12-20T01:43:20.909Z,9.50
2018-12-20T01:45:49.227Z,8.67
2018-12-20T01:48:17.543Z,8.87
2018-12-20T01:50:45.822Z,9.27
2018-12-20T01:53:14.087Z,8.10
2018-12-20T01:55:42.382Z,9.20
2018-12-20T01:58:10.635Z,8.30
2018-12-20T02:00:39.055Z,9.60
2018-12-20T02:03:07.390Z,7.80
2018-12-20T02:05:35.705Z,7.23
2018-12-20T02:08:04.056Z,8.77
2018-12-20T02:10:32.488Z,8.80
2018-12-20T02:13:00.712Z,9.03
2018-12-20T02:15:28.978Z,9.17
2018-12-20T02:17:57.305Z,8.03
2018-12-20T02:20:25.646Z,8.63
2018-12-20T02:22:53.815Z,8.43
2018-12-20T02:25:22.333Z,8.43
2018-12-20T02:27:50.574Z,7.53
2018-12-20T02:30:19.095Z,8.67
2018-12-20T02:32:47.605Z,7.60
2018-12-20T02:35:16.112Z,8.67
2018-12-20T02:37:44.545Z,7.80
2018-12-20T02:40:13.012Z,8.47
2018-12-20T02:42:41.231Z,8.07
2018-12-20T02:45:10.980Z,6.80
2018-12-20T02:47:39.515Z,8.50
2018-12-20T02:50:07.929Z,8.30
2018-12-20T02:52:36.179Z,8.77
2018-12-20T02:55:04.567Z,8.43
2018-12-20T02:57:32.916Z,9.27
2018-12-20T03:00:01.340Z,7.60
2018-12-20T03:02:29.731Z,9.63
2018-12-20T03:04:58.174Z,9.70
2018-12-20T03:07:26.386Z,9.50
2018-12-20T03:09:54.844Z,8.70
2018-12-20T03:12:24.308Z,8.33
2018-12-20T03:14:52.663Z,8.20
2018-12-20T03:17:21.330Z,8.40
2018-12-20T03:19:49.828Z,8.37
2018-12-20T03:22:18.292Z,7.43
2018-12-20T03:24:46.568Z,9.27
2018-12-20T03:27:14.905Z,7.43
2018-12-20T03:29:43.370Z,8.93
2018-12-20T03:32:12.086Z,8.97
2018-12-20T03:34:40.495Z,7.70
2018-12-20T03:37:08.738Z,8.20
2018-12-20T03:39:37.014Z,8.90
2018-12-20T03:42:05.459Z,8.97
2018-12-20T03:44:34.010Z,8.90
2018-12-20T03:47:02.409Z,8.47
2018-12-20T03:49:30.775Z,8.07
2018-12-20T03:51:59.181Z,9.77
2018-12-20T03:54:27.560Z,7.50
2018-12-20T03:56:55.909Z,9.17
2018-12-20T03:59:24.150Z,8.43
2018-12-20T04:01:52.656Z,9.20
2018-12-20T04:04:21.073Z,7.97
2018-12-20T04:06:49.483Z,7.90
2018-12-20T04:09:18.703Z,8.53
2018-12-20T04:11:46.988Z,8.47
2018-12-20T04:14:15.437Z,8.87
2018-12-20T04:16:43.936Z,8.00
2018-12-20T04:19:12.460Z,8.87
2018-12-20T04:21:41.009Z,8.00
2018-12-20T04:24:10.283Z,7.37
2018-12-20T04:26:38.663Z,7.20
2018-12-20T04:29:06.961Z,8.53
2018-12-20T04:31:35.186Z,6.50
2018-12-20T04:34:03.512Z,7.47
2018-12-20T04:36:31.861Z,7.03
2018-12-20T04:39:00.142Z,6.90
2018-12-20T04:41:28.475Z,7.10
2018-12-20T04:43:56.855Z,7.90
2018-12-20T04:46:25.203Z,6.97
2018-12-20T04:48:53.550Z,6.80
2018-12-20T04:51:22.061Z,6.97
2018-12-20T04:53:50.647Z,6.93
2018-12-20T04:56:19.218Z,7.30
2018-12-20T04:58:47.700Z,6.30
2018-12-20T05:01:15.924Z,7.23
2018-12-20T05:03:44.386Z,7.10
2018-12-20T05:06:12.637Z,7.50
2018-12-20T05:08:40.838Z,7.07
2018-12-20T05:11:09.155Z,6.77
2018-12-20T05:13:37.389Z,7.30
2018-12-20T05:16:05.820Z,6.90
2018-12-20T05:18:34.227Z,7.20
2018-12-20T05:21:02.885Z,7.23
2018-12-20T05:23:31.379Z,6.43
2018-12-20T05:25:59.871Z,6.80
2018-12-20T05:28:28.112Z,7.60
2018-12-20T05:30:56.486Z,7.20
2018-12-20T05:33:24.879Z,7.50
2018-12-20T05:35:53.394Z,8.20
2018-12-20T05:38:21.873Z,8.67
2018-12-20T05:40:50.310Z,8.17
2018-12-20T05:43:18.564Z,7.80
2018-12-20T05:45:46.935Z,7.50
2018-12-20T05:48:15.459Z,8.20
2018-12-20T05:50:43.674Z,7.47
2018-12-20T05:53:11.915Z,8.50
2018-12-20T05:55:40.537Z,9.33
2018-12-20T05:58:08.806Z,7.43
2018-12-20T06:00:37.047Z,7.93
2018-12-20T06:03:05.323Z,9.33
2018-12-20T06:05:33.772Z,8.40
2018-12-20T06:08:02.082Z,8.50
2018-12-20T06:10:30.343Z,7.80
2018-12-20T06:12:58.709Z,7.80
2018-12-20T06:15:27.032Z,9.10
2018-12-20T06:17:55.299Z,7.97
2018-12-20T06:20:23.836Z,7.93
2018-12-20T06:22:52.060Z,9.23
2018-12-20T06:25:21.419Z,8.60
2018-12-20T06:27:49.736Z,7.93
2018-12-20T06:30:17.992Z,8.57
2018-12-20T06:32:46.260Z,8.97
2018-12-20T06:35:14.475Z,7.90
2018-12-20T06:37:42.708Z,8.63
2018-12-20T06:40:11.020Z,9.17
2018-12-20T06:42:39.253Z,8.77
2018-12-20T06:45:07.492Z,8.90
2018-12-20T06:47:35.745Z,8.43
2018-12-20T06:50:04.317Z,9.20
2018-12-20T06:52:32.562Z,8.53
2018-12-20T06:55:00.800Z,7.37
2018-12-20T06:57:29.581Z,7.33
2018-12-20T06:59:57.958Z,7.90
2018-12-20T07:02:26.177Z,8.50
2018-12-20T07:04:54.432Z,7.80
2018-12-20T07:07:22.677Z,6.40
2018-12-20T07:09:50.919Z,7.47
2018-12-20T07:12:19.226Z,6.90
2018-12-20T07:14:47.470Z,6.73
2018-12-20T07:17:15.699Z,6.70
2018-12-20T07:19:43.911Z,6.10
2018-12-20T07:22:12.140Z,6.33
2018-12-20T07:24:40.386Z,6.20
2018-12-20T07:27:08.679Z,6.30
2018-12-20T07:29:36.920Z,6.40
2018-12-20T07:32:05.200Z,6.00
2018-12-20T07:34:33.610Z,5.60
2018-12-20T07:37:01.887Z,6.40
2018-12-20T07:39:30.114Z,6.37
2018-12-20T07:41:58.377Z,5.97
2018-12-20T07:44:26.656Z,6.00
2018-12-20T07:46:54.876Z,7.07
2018-12-20T07:49:23.162Z,6.57
2018-12-20T07:51:51.379Z,6.07
2018-12-20T07:54:19.579Z,6.03
2018-12-20T07:56:47.842Z,6.00
2018-12-20T07:59:23.370Z,6.37
2018-12-20T08:01:47.896Z,5.53
2018-12-20T08:04:16.415Z,5.33
2018-12-20T08:06:44.629Z,5.13
2018-12-20T08:09:12.883Z,5.10
2018-12-20T08:11:41.730Z,5.60
2018-12-20T08:14:09.944Z,5.47
2018-12-20T08:16:45.880Z,5.70
2018-12-20T08:19:08.417Z,5.10
2018-12-20T08:21:36.652Z,4.77
2018-12-20T08:24:04.921Z,5.37
2018-12-20T08:26:33.292Z,5.27
2018-12-20T08:29:01.495Z,5.60
2018-12-20T08:31:29.838Z,5.40
2018-12-20T08:33:58.817Z,5.43
2018-12-20T08:36:28.374Z,4.90
2018-12-20T08:38:58.514Z,5.13
2018-12-20T08:41:27.369Z,5.10
2018-12-20T08:43:55.801Z,4.90
2018-12-20T08:46:24.037Z,4.70
2018-12-20T08:48:53.257Z,4.77
2018-12-20T08:51:21.633Z,5.20
2018-12-20T08:53:50.408Z,5.03
2018-12-20T08:56:18.658Z,5.87
2018-12-20T08:58:47.465Z,4.43
2018-12-20T09:01:15.764Z,5.57
2018-12-20T09:03:44.403Z,5.13
2018-12-20T09:06:12.997Z,4.33
2018-12-20T09:08:41.179Z,4.80
2018-12-20T09:11:10.393Z,4.50
2018-12-20T09:13:39.784Z,5.57
2018-12-20T09:16:08.181Z,4.63
2018-12-20T09:18:36.471Z,5.27
2018-12-20T09:21:04.899Z,5.47
2018-12-20T09:23:33.675Z,5.33
2018-12-20T09:26:04.224Z,5.40
2018-12-20T09:28:33.349Z,4.77
2018-12-20T09:31:01.721Z,5.93
2018-12-20T09:33:30.121Z,5.20
2018-12-20T09:35:58.434Z,4.70
2018-12-20T09:38:26.761Z,5.30
2018-12-20T09:40:55.072Z,4.40
2018-12-20T09:43:24.858Z,5.10
2018-12-20T09:45:53.400Z,4.90
2018-12-20T09:48:22.191Z,6.00
2018-12-20T09:50:51.422Z,4.43
2018-12-20T09:53:19.876Z,5.03
2018-12-20T09:55:48.364Z,5.20
2018-12-20T09:58:17.025Z,4.43
2018-12-20T10:00:46.139Z,5.27
2018-12-20T10:03:14.435Z,5.20
2018-12-20T10:05:42.824Z,4.90
2018-12-20T10:08:11.462Z,4.80
2018-12-20T10:10:39.945Z,4.60
2018-12-20T10:13:10.225Z,5.13
2018-12-20T10:15:43.589Z,5.33
2018-12-20T10:18:13.871Z,5.30
2018-12-20T10:20:42.171Z,4.50
2018-12-20T10:23:10.416Z,5.43
2018-12-20T10:25:38.668Z,4.70
2018-12-20T10:28:06.875Z,4.87
2018-12-20T10:30:35.115Z,4.97
2018-12-20T10:33:05.715Z,4.50
2018-12-20T10:35:35.948Z,4.50
2018-12-20T10:38:05.997Z,4.17
2018-12-20T10:40:34.571Z,4.80
2018-12-20T10:43:03.395Z,4.33
2018-12-20T10:45:31.942Z,5.00
2018-12-20T10:48:00.169Z,4.87
2018-12-20T10:50:29.026Z,4.40
2018-12-20T10:52:57.636Z,4.53
2018-12-20T10:55:26.289Z,4.43
2018-12-20T10:57:54.979Z,5.00
2018-12-20T11:00:24.563Z,4.20
2018-12-20T11:02:58.905Z,5.17
2018-12-20T11:05:30.836Z,5.30
2018-12-20T11:08:01.164Z,5.93
2018-12-20T11:10:29.520Z,4.97
2018-12-20T11:12:59.857Z,5.00
2018-12-20T11:15:28.218Z,4.80
2018-12-20T11:17:56.521Z,5.07
2018-12-20T11:20:24.876Z,4.63
2018-12-20T11:22:53.179Z,4.73
2018-12-20T11:25:21.453Z,5.00
2018-12-20T11:27:49.808Z,5.47
2018-12-20T11:30:19.347Z,4.90
2018-12-20T11:32:47.613Z,4.90
2018-12-20T11:35:16.165Z,4.60
2018-12-20T11:37:44.559Z,4.40
2018-12-20T11:40:12.758Z,5.63
2018-12-20T11:42:42.158Z,4.27
2018-12-20T11:45:10.547Z,4.43
2018-12-20T11:47:45.911Z,5.17
2018-12-20T11:50:09.957Z,4.70
2018-12-20T11:52:42.277Z,4.87
2018-12-20T11:55:08.469Z,4.30
2018-12-20T11:57:37.184Z,4.27
2018-12-20T12:00:08.732Z,4.80
2018-12-20T12:02:37.140Z,5.20
2018-12-20T12:05:06.231Z,4.53
2018-12-20T12:07:34.442Z,5.70
2018-12-20T12:10:05.478Z,5.43
2018-12-20T12:12:33.902Z,4.67
2018-12-20T12:15:02.368Z,4.90
2018-12-20T12:17:30.686Z,4.80
2018-12-20T12:19:58.973Z,5.13
2018-12-20T12:22:27.219Z,4.07
2018-12-20T12:24:55.526Z,4.83
2018-12-20T12:27:24.058Z,4.87
2018-12-20T12:29:52.655Z,4.30
2018-12-20T12:32:21.097Z,4.43
2018-12-20T12:34:49.707Z,4.27
2018-12-20T12:37:18.068Z,4.90
2018-12-20T12:39:46.485Z,4.20
2018-12-20T12:42:15.032Z,4.20
2018-12-20T12:44:43.322Z,5.33
2018-12-20T12:47:11.577Z,4.70
2018-12-20T12:49:39.989Z,4.60
2018-12-20T12:52:08.306Z,4.70
2018-12-20T12:54:36.824Z,6.07
2018-12-20T12:57:05.101Z,4.20
2018-12-20T12:59:33.366Z,4.30
2018-12-20T13:02:02.351Z,3.93
2018-12-20T13:04:30.623Z,3.50
2018-12-20T13:06:58.901Z,3.90
2018-12-20T13:09:27.211Z,3.93
2018-12-20T13:11:55.536Z,3.67
2018-12-20T13:14:23.764Z,4.07
2018-12-20T13:16:52.130Z,4.70
2018-12-20T13:19:20.444Z,4.50
2018-12-20T13:21:48.790Z,4.33
2018-12-20T13:24:17.365Z,3.87
2018-12-20T13:26:45.648Z,3.57
2018-12-20T13:29:13.985Z,4.60
2018-12-20T13:31:42.216Z,4.70
2018-12-20T13:34:10.636Z,4.73
2018-12-20T13:36:39.032Z,4.40
2018-12-20T13:39:07.352Z,5.87
2018-12-20T13:41:35.809Z,5.37
2018-12-20T13:44:04.125Z,4.83
2018-12-20T13:46:32.522Z,4.43
2018-12-20T13:49:00.723Z,4.73
2018-12-20T13:51:29.068Z,5.53
2018-12-20T13:53:57.281Z,5.87
2018-12-20T13:56:25.545Z,6.23
2018-12-20T13:58:53.861Z,5.60
2018-12-20T14:01:22.110Z,6.47
2018-12-20T14:03:50.382Z,5.90
2018-12-20T14:06:18.614Z,6.80
2018-12-20T14:08:47.001Z,7.00
2018-12-20T14:11:15.222Z,6.70
2018-12-20T14:13:43.642Z,5.87
2018-12-20T14:16:11.851Z,5.60
2018-12-20T14:18:40.195Z,5.97
2018-12-20T14:21:08.376Z,6.90
2018-12-20T14:23:36.676Z,5.00
2018-12-20T14:26:05.015Z,5.80
2018-12-20T14:28:33.187Z,4.90
2018-12-20T14:31:01.690Z,5.30
2018-12-20T14:33:29.963Z,6.00
2018-12-20T14:35:58.262Z,5.20
2018-12-20T14:38:26.595Z,6.23
2018-12-20T14:40:54.974Z,5.80
2018-12-20T14:43:23.185Z,5.70
2018-12-20T14:45:51.444Z,5.10
2018-12-20T14:48:25.285Z,6.17
2018-12-20T14:50:53.602Z,4.80
2018-12-20T14:53:21.909Z,5.93
2018-12-20T14:55:51.181Z,4.90
2018-12-20T14:58:19.511Z,6.00
2018-12-20T15:00:47.925Z,5.80
2018-12-20T15:03:16.242Z,5.93
2018-12-20T15:05:44.619Z,5.33
2018-12-20T15:08:12.885Z,5.93
2018-12-20T15:10:41.161Z,5.17
2018-12-20T15:13:09.440Z,6.40
2018-12-20T15:15:37.976Z,5.83
2018-12-20T15:18:06.260Z,5.60
2018-12-20T15:20:40.562Z,5.50
2018-12-20T15:23:04.939Z,5.93
2018-12-20T15:25:33.268Z,5.97
2018-12-20T15:28:01.776Z,5.60
2018-12-20T15:30:30.316Z,7.13
2018-12-20T15:32:58.769Z,5.53
2018-12-20T15:35:27.146Z,6.27
2018-12-20T15:37:55.422Z,6.10
2018-12-20T15:40:23.736Z,7.67
2018-12-20T15:42:52.072Z,6.10
2018-12-20T15:45:20.325Z,6.50
2018-12-20T15:47:48.640Z,6.40
2018-12-20T15:50:16.998Z,6.13
2018-12-20T15:52:45.682Z,6.93
2018-12-20T15:55:14.102Z,7.37
2018-12-20T15:57:42.706Z,6.30
2018-12-20T16:00:11.458Z,7.40
2018-12-20T16:02:40.218Z,6.10
2018-12-20T16:05:09.109Z,6.93
2018-12-20T16:07:37.590Z,6.17
2018-12-20T16:10:07.420Z,6.20
2018-12-20T16:12:35.663Z,6.10
2018-12-20T16:15:04.575Z,6.80
2018-12-20T16:17:32.874Z,6.40
2018-12-20T16:20:01.211Z,7.07
2018-12-20T16:22:29.524Z,6.47
2018-12-20T16:24:57.844Z,6.50
2018-12-20T16:27:27.058Z,7.87
2018-12-20T16:29:55.536Z,6.30
2018-12-20T16:32:24.148Z,7.43
2018-12-20T16:34:52.656Z,7.77
2018-12-20T16:37:20.934Z,8.83
2018-12-20T16:39:49.370Z,7.13
2018-12-20T16:42:17.731Z,7.90
2018-12-20T16:44:46.187Z,8.07
2018-12-20T16:47:15.694Z,7.33
2018-12-20T16:49:44.180Z,8.03
2018-12-20T16:52:12.532Z,8.87
2018-12-20T16:54:40.741Z,7.10
2018-12-20T16:57:08.962Z,8.30
2018-12-20T16:59:37.218Z,8.50
2018-12-20T17:02:06.036Z,8.17
2018-12-20T17:04:34.343Z,7.20
2018-12-20T17:07:02.703Z,6.97
2018-12-20T17:09:31.047Z,6.87
2018-12-20T17:11:59.488Z,6.87
2018-12-20T17:14:27.803Z,7.30
2018-12-20T17:16:56.537Z,7.00
2018-12-20T17:19:24.820Z,7.93
2018-12-20T17:21:53.485Z,8.63
2018-12-20T17:24:22.185Z,8.50
2018-12-20T17:26:50.472Z,9.60
2018-12-20T17:29:18.764Z,7.50
2018-12-20T17:31:47.086Z,9.40
2018-12-20T17:34:15.428Z,6.47
2018-12-20T17:36:43.696Z,8.43
2018-12-20T17:39:11.937Z,7.33
2018-12-20T17:41:40.248Z,7.00
2018-12-20T17:44:08.599Z,5.67
2018-12-20T17:46:36.844Z,6.80
2018-12-20T17:49:05.234Z,6.50
2018-12-20T17:51:33.585Z,6.60
2018-12-20T17:54:02.091Z,5.80
2018-12-20T17:56:30.406Z,7.50
2018-12-20T17:58:58.744Z,6.67
2018-12-20T18:01:26.933Z,6.47
2018-12-20T18:03:55.418Z,7.47
2018-12-20T18:06:23.783Z,6.57
2018-12-20T18:08:52.873Z,7.60
2018-12-20T18:11:21.247Z,7.97
2018-12-20T18:13:49.778Z,6.57
2018-12-20T18:16:18.205Z,7.20
2018-12-20T18:18:46.476Z,7.33
2018-12-20T18:21:14.792Z,6.80
2018-12-20T18:23:43.263Z,8.53
2018-12-20T18:26:11.894Z,7.50
2018-12-20T18:28:40.221Z,7.37
2018-12-20T18:31:08.792Z,8.33
2018-12-20T18:33:37.136Z,7.80
2018-12-20T18:36:05.641Z,8.00
2018-12-20T18:38:33.857Z,8.83
2018-12-20T18:41:02.252Z,9.97
2018-12-20T18:43:30.487Z,8.63
2018-12-20T18:45:59.135Z,9.40
2018-12-20T18:48:27.410Z,10.33
2018-12-20T18:50:55.621Z,8.53
2018-12-20T18:53:23.976Z,9.80
2018-12-20T18:55:52.271Z,10.50
2018-12-20T18:58:20.546Z,9.40
2018-12-20T19:00:48.827Z,9.90
2018-12-20T19:03:17.160Z,10.20
2018-12-20T19:05:45.393Z,9.93
2018-12-20T19:08:13.710Z,11.60
2018-12-20T19:10:42.274Z,10.13
2018-12-20T19:13:10.601Z,10.73
2018-12-20T19:15:38.898Z,10.10
2018-12-20T19:18:07.315Z,9.80
2018-12-20T19:20:35.589Z,9.77
2018-12-20T19:23:03.868Z,11.50
2018-12-20T19:25:32.476Z,9.80
2018-12-20T19:28:00.823Z,10.00
2018-12-20T19:30:29.152Z,9.53
2018-12-20T19:32:57.377Z,10.30
2018-12-20T19:35:25.751Z,9.00
2018-12-20T19:37:53.965Z,9.13
2018-12-20T19:40:22.300Z,10.50
2018-12-20T19:42:50.510Z,10.60
2018-12-20T19:45:18.848Z,11.27
2018-12-20T19:47:47.123Z,11.10
2018-12-20T19:50:15.443Z,10.03
2018-12-20T19:52:43.800Z,9.93
2018-12-20T19:55:12.150Z,9.10
2018-12-20T19:57:40.363Z,9.80
2018-12-20T20:00:11.712Z,9.13
2018-12-20T20:02:39.971Z,9.90
2018-12-20T20:05:08.323Z,8.20
2018-12-20T20:07:38.344Z,9.67
2018-12-20T20:10:08.910Z,9.70
2018-12-20T20:12:37.241Z,10.33
2018-12-20T20:15:16.040Z,8.90
2018-12-20T20:17:38.024Z,8.23
2018-12-20T20:20:13.937Z,8.90
2018-12-20T20:22:36.892Z,9.20
2018-12-20T20:25:06.431Z,8.77
2018-12-20T20:27:34.791Z,8.50
2018-12-20T20:30:04.110Z,8.33
2018-12-20T20:32:32.361Z,9.10
2018-12-20T20:35:00.724Z,8.20
2018-12-20T20:37:28.913Z,7.50
2018-12-20T20:39:57.272Z,8.50
2018-12-20T20:42:25.450Z,7.90
2018-12-20T20:44:53.720Z,8.17
2018-12-20T20:47:22.303Z,7.80
2018-12-20T20:49:50.575Z,6.77
2018-12-20T20:52:18.907Z,7.80
2018-12-20T20:54:47.166Z,7.37
2018-12-20T20:57:15.430Z,8.40
2018-12-20T20:59:50.910Z,7.13
2018-12-20T21:02:14.120Z,7.03
2018-12-20T21:04:42.404Z,7.60
2018-12-20T21:07:10.699Z,7.07
2018-12-20T21:09:39.024Z,6.83
2018-12-20T21:12:07.400Z,6.97
2018-12-20T21:14:35.675Z,6.90
2018-12-20T21:17:04.009Z,7.67
2018-12-20T21:19:32.432Z,7.70
2018-12-20T21:22:00.705Z,6.40
2018-12-20T21:24:28.979Z,6.87
2018-12-20T21:26:57.289Z,6.83
2018-12-20T21:29:25.732Z,7.20
2018-12-20T21:31:53.969Z,6.77
2018-12-20T21:34:22.386Z,6.83
2018-12-20T21:36:50.763Z,6.50
2018-12-20T21:39:18.955Z,6.40
2018-12-20T21:41:47.456Z,6.23
2018-12-20T21:44:15.789Z,7.00
2018-12-20T21:46:44.103Z,7.33
2018-12-20T21:49:12.442Z,6.90
2018-12-20T21:51:40.715Z,7.53
2018-12-20T21:54:08.922Z,6.47
2018-12-20T21:56:37.380Z,6.23
2018-12-20T21:59:05.571Z,6.87
2018-12-20T22:01:33.918Z,6.33
2018-12-20T22:04:02.292Z,7.10
2018-12-20T22:06:30.470Z,6.20
2018-12-20T22:08:58.842Z,6.87
2018-12-20T22:11:27.219Z,6.00
2018-12-20T22:13:55.444Z,6.53
2018-12-20T22:16:23.762Z,6.90
2018-12-20T22:18:52.098Z,6.50
2018-12-20T22:21:20.361Z,9.23
2018-12-20T22:23:48.624Z,9.57
2018-12-20T22:26:17.004Z,8.20
2018-12-20T22:28:45.383Z,7.20
2018-12-20T22:31:13.723Z,8.17
2018-12-20T22:33:42.044Z,7.77
2018-12-20T22:36:10.536Z,7.37
2018-12-20T22:38:38.785Z,7.90
2018-12-20T22:41:07.064Z,6.60
2018-12-20T22:43:35.417Z,7.30
2018-12-20T22:46:03.779Z,6.60
2018-12-20T22:48:31.984Z,7.17
2018-12-20T22:51:00.532Z,8.17
2018-12-20T22:53:28.895Z,8.20
2018-12-20T22:55:57.449Z,6.40
2018-12-20T22:58:25.700Z,7.53
2018-12-20T23:00:54.987Z,7.00
2018-12-20T23:03:23.345Z,7.07
2018-12-20T23:05:51.612Z,7.00
2018-12-20T23:08:19.886Z,7.63
2018-12-20T23:10:48.098Z,7.10
2018-12-20T23:13:16.438Z,7.10
2018-12-20T23:15:44.636Z,7.00
2018-12-20T23:18:12.985Z,6.83
2018-12-20T23:20:41.258Z,7.17
2018-12-20T23:23:09.536Z,6.80
2018-12-20T23:25:37.948Z,7.00
2018-12-20T23:28:06.221Z,6.97
2018-12-20T23:30:34.566Z,6.30
2018-12-20T23:33:02.940Z,7.43
2018-12-20T23:35:31.163Z,6.60
2018-12-20T23:37:59.369Z,5.53
2018-12-20T23:40:27.659Z,5.40
2018-12-20T23:42:55.935Z,6.83
2018-12-20T23:45:24.123Z,6.10
2018-12-20T23:47:52.485Z,6.00
2018-12-20T23:50:20.706Z,6.30
2018-12-20T23:52:49.064Z,5.20
2018-12-20T23:55:17.411Z,5.30
2018-12-20T23:57:45.689Z,6.77
